Canaleja, Mexico

2:48 PM CDT on May 28, 2017 (GMT -0500)
Lic Adolfo Lopez Mateos International | | Change Station

Elev 8451 ft 19.35 °N, 99.57 °W | Updated 1 hour ago

Mostly Cloudy
Mostly Cloudy
72 °F
Feels Like 72 °F
N
7
Wind Variable Wind from WNW

Today
High -- | Low -- °F
--% Chance of Precip.
Yesterday
High -- | Low -- °F
Precip. -- in
Pressure 30.33 in
Visibility 5.0 miles
Clouds Scattered Clouds 1500 ft
Mostly Cloudy 20000 ft
Dew Point 46 °F
Humidity 41%
Rainfall 0.00 in
Snow Depth Not available.
6:59 AM 8:11 PM
Waxing Crescent, 13% visible
METAR MMTO 281847Z 30006KT 5SM SCT015 BKN200 22/08 A3033 RMK 8/202 HZY
Pressure 30.33 in
Visibility 5.0 miles
Clouds Scattered Clouds 1500 ft
Mostly Cloudy 20000 ft
Dew Point 46 °F
Humidity 41%
Rainfall 0.00 in
Snow Depth Not available.
6:59 AM 8:11 PM
Waxing Crescent, 13% visible
METAR MMTO 281847Z 30006KT 5SM SCT015 BKN200 22/08 A3033 RMK 8/202 HZY

Get Severe Weather Alerts

Thanks for signing up!

Be on the lookout for a verification email in your inbox.

You'll start receiving the daily forecast at 6 AM.

×

10-Day Weather Forecast

No radar image for this location.
×

Almanac

Astronomy

May. 28, 2017 Rise Set
Actual Time
Civil Twilight
Nautical Twilight
Astronomical Twilight
Moon
Length of Visible Light
Length of Day
Tomorrow will be .
, % of the Moon is Illuminated

Today's Extremes

Country Highs Country Lows

Community

WunderPhotos

Category 6

Welcome to Category 6. This is the collective home for Weather Underground's featured writeups by Dr. Jeff Masters (right), Bob Henson (left), Chris Burt, and other regular contributors.

Nearby

Air Quality

  Air Quality AQ Index Pollutant
Not available.

Snow Depth

Station Depth Elevation

Earthquake Activity

City Distance Mag. Time & Date
Minimum magnitude displayed is 2.5.

Coastal Water Temperatures

Place Temperature

Stations

Nearby Weather Stations

Station Location Temp. Windchill Dew Point Humidity Wind Precip. Elev Updated Type